M I D A S
Marine Information and Data Acquisition System
Tripno 468 of the Zeeleeuw from 2003-04-24 04:30:00 to 2003-04-24 21:00:00
Back to CruiseResearch ActivitiesStationsMapUnderway DataData graphs

EquipmentUnitsComment
TimeDGPSUTC
LatitudeDGPSDM.mWGS84
LongitudeDGPSDM.mWGS84
HeadingGyrodeg 
SOGDGPSknotsSpeed over ground
COGDGPSdegCourse over ground
DepthEcho soundermeters200 kHz
Missing or incorrect values are displayed as -999
Navigation data collected by the RV Zeeleeuw from 2003-04-24 04:30:00 to 2003-04-24 21:00:00
                                                                                    Next 1000 lines
Time Latitude Longitude Heading SOG COG Depth
2003-04-24 04:30:07 51°13.6 2°56.1 127.1   357 -999
2003-04-24 04:30:11 51°13.6 2°56.1 127.1     -999
2003-04-24 04:30:17 51°13.6 2°56.1 127.1   250 -999
2003-04-24 04:30:23 51°13.6 2°56.1 127.1   175 -999
2003-04-24 04:30:27 51°13.6 2°56.1 127.1   189 -999
2003-04-24 04:30:31 51°13.6 2°56.1 127.1   176 -999
2003-04-24 04:30:37 51°13.6 2°56.1 127.1   138 -999
2003-04-24 04:30:41 51°13.6 2°56.1 127.1   76 -999
2003-04-24 04:30:47 51°13.6 2°56.1 127.1   178 -999
2003-04-24 04:30:51 51°13.6 2°56.1 127.1   50 -999
2003-04-24 04:30:57 51°13.6 2°56.1 127.1   104 -999
2003-04-24 04:31:01 51°13.6 2°56.1 127.1   180 -999
2003-04-24 04:31:07 51°13.6 2°56.1 127.1   159 -999
2003-04-24 04:31:11 51°13.6 2°56.1 127.1   44 -999
2003-04-24 04:31:17 51°13.6 2°56.1 127.1   27 -999
2003-04-24 04:31:21 51°13.6 2°56.11 127.1   225 -999
2003-04-24 04:31:27 51°13.6 2°56.11 127.1   209 -999
2003-04-24 04:31:31 51°13.6 2°56.11 127.1   162 -999
2003-04-24 04:31:37 51°13.6 2°56.11 127.1   133 -999
2003-04-24 04:31:41 51°13.6 2°56.11 127.1   143 -999
2003-04-24 04:31:47 51°13.6 2°56.11 127.1   185 -999
2003-04-24 04:31:51 51°13.6 2°56.11 127.1   172 -999
2003-04-24 04:31:57 51°13.6 2°56.1 127.1   131 -999
2003-04-24 04:32:01 51°13.6 2°56.1 127.1   176 -999
2003-04-24 04:32:07 51°13.6 2°56.1 127.1   194 -999
2003-04-24 04:32:11 51°13.6 2°56.1 127.1   193 -999
2003-04-24 04:32:17 51°13.6 2°56.1 127.1   194 -999
2003-04-24 04:32:21 51°13.6 2°56.1 127.1   204 -999
2003-04-24 04:32:27 51°13.6 2°56.1 127.1   214 -999
2003-04-24 04:32:31 51°13.6 2°56.1 127.1   309 -999
2003-04-24 04:32:37 51°13.6 2°56.1 127.1   23 -999
2003-04-24 04:32:41 51°13.6 2°56.1 127.1   60 -999
2003-04-24 04:32:47 51°13.6 2°56.1 127.1   186 -999
2003-04-24 04:32:51 51°13.6 2°56.1 127.1   200 -999
2003-04-24 04:32:57 51°13.6 2°56.1 127.2   204 -999
2003-04-24 04:33:01 51°13.6 2°56.1 127.2   201 -999
2003-04-24 04:33:07 51°13.6 2°56.11 127.2   199 -999
2003-04-24 04:33:11 51°13.6 2°56.11 127.2   215 -999
2003-04-24 04:33:17 51°13.6 2°56.1 127.2   207 -999
2003-04-24 04:33:21 51°13.6 2°56.11 127.2   143 -999
2003-04-24 04:33:27 51°13.6 2°56.1 127.2   159 -999
2003-04-24 04:33:31 51°13.6 2°56.1 127.2   24 -999
2003-04-24 04:33:37 51°13.6 2°56.1 127.2   221 -999
2003-04-24 04:33:41 51°13.6 2°56.1 127.2   241 -999
2003-04-24 04:33:47 51°13.6 2°56.1 127.2   202 9.3
2003-04-24 04:33:51 51°13.6 2°56.1 127.2   187 9.4
2003-04-24 04:33:57 51°13.6 2°56.1 127.2   184 -999
2003-04-24 04:34:01 51°13.6 2°56.1 127.2   141 -999
2003-04-24 04:34:07 51°13.6 2°56.1 127.2   59 -999
2003-04-24 04:34:11 51°13.6 2°56.1 127.2   18 9.5
2003-04-24 04:34:17 51°13.6 2°56.11 127.2   26 -999
2003-04-24 04:34:21 51°13.6 2°56.1 127.2   29 9.4
2003-04-24 04:34:27 51°13.6 2°56.11 127.2   250 -999
2003-04-24 04:34:33 51°13.6 2°56.11 127.2   197 9.4
2003-04-24 04:34:37 51°13.6 2°56.11 127.2   197 9.4
2003-04-24 04:34:41 51°13.6 2°56.1 127.2   178 9.3
2003-04-24 04:34:47 51°13.6 2°56.1 127.2   180 -999
2003-04-24 04:34:51 51°13.6 2°56.1 127.2   152 -999
2003-04-24 04:34:57 51°13.6 2°56.1 127.2   167 -999
2003-04-24 04:35:01 51°13.6 2°56.1 127.2   56 9.3
2003-04-24 04:35:07 51°13.6 2°56.1 127.2   22 9.3
2003-04-24 04:35:11 51°13.6 2°56.1 127.2   26 9.4
2003-04-24 04:35:17 51°13.6 2°56.1 127.2   5 9.4
2003-04-24 04:35:21 51°13.6 2°56.1 127.2   354 -999
2003-04-24 04:35:27 51°13.6 2°56.1 127.2   348 9.4
2003-04-24 04:35:31 51°13.6 2°56.1 127.2   33 9.3
2003-04-24 04:35:37 51°13.6 2°56.1 127.2   147 9.4
2003-04-24 04:35:41 51°13.6 2°56.1 127.2   163 -999
2003-04-24 04:35:47 51°13.6 2°56.1 127.2   192 -999
2003-04-24 04:35:51 51°13.6 2°56.1 127.2   185 9.3
2003-04-24 04:35:57 51°13.6 2°56.1 127.2   93 9.4
2003-04-24 04:36:01 51°13.6 2°56.1 127.2   200 -999
2003-04-24 04:36:07 51°13.6 2°56.1 127.2   215 9.3
2003-04-24 04:36:13 51°13.6 2°56.1 127.2   241 9.3
2003-04-24 04:36:17 51°13.6 2°56.1 127.2   261 9.3
2003-04-24 04:36:21 51°13.6 2°56.1 127.2   210 9.3
2003-04-24 04:36:27 51°13.6 2°56.1 127.2   226 9.3
2003-04-24 04:36:31 51°13.6 2°56.1 127.2   8 9.4
2003-04-24 04:36:37 51°13.6 2°56.1 127.2   10 9.3
2003-04-24 04:36:41 51°13.6 2°56.1 127.2   14 9.4
2003-04-24 04:36:47 51°13.6 2°56.1 127.2   18 9.3
2003-04-24 04:36:51 51°13.6 2°56.1 127.2   233 9.3
2003-04-24 04:36:57 51°13.6 2°56.1 127.2   231 9.3
2003-04-24 04:37:01 51°13.6 2°56.1 127.2   214 9.3
2003-04-24 04:37:07 51°13.6 2°56.1 127.2   187 9.3
2003-04-24 04:37:11 51°13.6 2°56.1 127.2   72 9.4
2003-04-24 04:37:17 51°13.6 2°56.1 127.1   139 9.4
2003-04-24 04:37:21 51°13.6 2°56.11 127.1   88 9.3
2003-04-24 04:37:27 51°13.6 2°56.11 127.1   166 9.3
2003-04-24 04:37:31 51°13.6 2°56.11 127.1   107 9.4
2003-04-24 04:37:37 51°13.6 2°56.11 127.1   177 9.3
2003-04-24 04:37:41 51°13.6 2°56.11 127.1   40 9.3
2003-04-24 04:37:47 51°13.6 2°56.1 127.1   36 9.3
2003-04-24 04:37:51 51°13.6 2°56.1 127.1   48 9.4
2003-04-24 04:37:57 51°13.6 2°56.1 127.1   192 9.4
2003-04-24 04:38:01 51°13.6 2°56.1 127.1   179 9.4
2003-04-24 04:38:07 51°13.6 2°56.1 127.1   190 9.3
2003-04-24 04:38:11 51°13.6 2°56.11 127.1   197 9.4
2003-04-24 04:38:17 51°13.6 2°56.11 127.1   183 9.4
2003-04-24 04:38:21 51°13.6 2°56.1 127.1   247 9.3
2003-04-24 04:38:27 51°13.6 2°56.1 127.1   256 9.4
2003-04-24 04:38:31 51°13.6 2°56.1 127.1   7 9.4
2003-04-24 04:38:37 51°13.6 2°56.1 127.1   41 9.4
2003-04-24 04:38:41 51°13.6 2°56.1 127.1   83 9.4
2003-04-24 04:38:47 51°13.6 2°56.1 127.1   114 9.4
2003-04-24 04:38:51 51°13.6 2°56.1 127.1   72 9.4
2003-04-24 04:38:57 51°13.6 2°56.1 127.1   346 9.4
2003-04-24 04:39:01 51°13.6 2°56.1 127.1   335 9.4
2003-04-24 04:39:07 51°13.6 2°56.1 127.1   37 9.4
2003-04-24 04:39:11 51°13.6 2°56.1 127.1   70 9.4
2003-04-24 04:39:17 51°13.6 2°56.1 127.1   65 9.5
2003-04-24 04:39:21 51°13.6 2°56.1 127.1   157 9.4
2003-04-24 04:39:27 51°13.6 2°56.1 127.1   232 9.4
2003-04-24 04:39:31 51°13.6 2°56.1 127.1   98 9.3
2003-04-24 04:39:37 51°13.6 2°56.1 127.1   358 9.5
2003-04-24 04:39:41 51°13.6 2°56.1 127.1   293 9.6
2003-04-24 04:39:47 51°13.6 2°56.1 127.1   317 9.5
2003-04-24 04:39:51 51°13.6 2°56.1 127.2   324 9.4
2003-04-24 04:39:57 51°13.6 2°56.1 127.2   294 9.4
2003-04-24 04:40:01 51°13.6 2°56.1 127.2   254 9.4
2003-04-24 04:40:07 51°13.6 2°56.1 127.2   201 9.5
2003-04-24 04:40:11 51°13.6 2°56.1 127.2   340 9.4
2003-04-24 04:40:17 51°13.6 2°56.1 127.2   354 9.4
2003-04-24 04:40:21 51°13.6 2°56.1 127.2     9.5
2003-04-24 04:40:27 51°13.6 2°56.1 127.2   36 9.3
2003-04-24 04:40:31 51°13.6 2°56.1 127.2   65 9.5
2003-04-24 04:40:37 51°13.6 2°56.1 127.2   60 9.5
2003-04-24 04:40:41 51°13.6 2°56.1 127.2   100 9.6
2003-04-24 04:40:47 51°13.6 2°56.1 127.2   96 9.4
2003-04-24 04:40:53 51°13.6 2°56.1 127.2   246 9.6
2003-04-24 04:40:57 51°13.6 2°56.1 127.2   260 9.4
2003-04-24 04:41:01 51°13.6 2°56.1 127.2   312 9.4
2003-04-24 04:41:07 51°13.6 2°56.1 127.2   88 9.6
2003-04-24 04:41:11 51°13.6 2°56.1 127.2   20 9.4
2003-04-24 04:41:17 51°13.6 2°56.1 127.2   343 9.4
2003-04-24 04:41:21 51°13.6 2°56.1 127.2   25 9.4
2003-04-24 04:41:27 51°13.6 2°56.1 127.2   42 9.4
2003-04-24 04:41:31 51°13.6 2°56.1 127.2   101 9.4
2003-04-24 04:41:37 51°13.6 2°56.1 127.2   143 9.5
2003-04-24 04:41:41 51°13.6 2°56.1 127.2   311 9.4
2003-04-24 04:41:47 51°13.6 2°56.1 127.2   327 9.4
2003-04-24 04:41:51 51°13.6 2°56.1 127.2   28 9.4
2003-04-24 04:41:57 51°13.6 2°56.1 127.2   135 9.3
2003-04-24 04:42:01 51°13.6 2°56.1 127.2   198 9.5
2003-04-24 04:42:07 51°13.6 2°56.1 127.2   272 9.4
2003-04-24 04:42:11 51°13.6 2°56.1 127.2   296 9.4
2003-04-24 04:42:17 51°13.6 2°56.1 127.2   306 9.6
2003-04-24 04:42:21 51°13.6 2°56.1 127.2   328 9.4
2003-04-24 04:42:27 51°13.6 2°56.1 127.3   356 9.6
2003-04-24 04:42:31 51°13.6 2°56.1 127.3   69 9.6
2003-04-24 04:42:37 51°13.6 2°56.1 127.3   90 9.5
2003-04-24 04:42:41 51°13.6 2°56.1 127.3   63 9.4
2003-04-24 04:42:47 51°13.6 2°56.1 127.3   23 9.5
2003-04-24 04:42:51 51°13.6 2°56.1 127.3   313 9.6
2003-04-24 04:42:57 51°13.6 2°56.1 127.3   293 9.6
2003-04-24 04:43:01 51°13.6 2°56.1 127.3   49 9.5
2003-04-24 04:43:07 51°13.6 2°56.1 127.3   80 9.4
2003-04-24 04:43:11 51°13.6 2°56.1 127.3   340 9.5
2003-04-24 04:43:17 51°13.6 2°56.1 127.3   293 -999
2003-04-24 04:43:21 51°13.6 2°56.1 127.3   261 9.5
2003-04-24 04:43:27 51°13.6 2°56.1 127.3   282 9.5
2003-04-24 04:43:31 51°13.6 2°56.1 127.3   340 9.6
2003-04-24 04:43:37 51°13.6 2°56.1 127.3   337 9.4
2003-04-24 04:43:41 51°13.6 2°56.1 127.3   352 -999
2003-04-24 04:43:47 51°13.6 2°56.1 127.2   358 -999
2003-04-24 04:43:51 51°13.6 2°56.1 127.2   11 -999
2003-04-24 04:43:57 51°13.6 2°56.1 127.2   168 9.6
2003-04-24 04:44:01 51°13.6 2°56.1 127.2   347 9.5
2003-04-24 04:44:07 51°13.6 2°56.1 127.2   341 9.4
2003-04-24 04:44:11 51°13.6 2°56.1 127.2   47 9.4
2003-04-24 04:44:17 51°13.6 2°56.1 127.2   35 9.4
2003-04-24 04:44:21 51°13.6 2°56.1 127.2   303 9.4
2003-04-24 04:44:27 51°13.6 2°56.1 127.2   305 9.5
2003-04-24 04:44:31 51°13.6 2°56.1 127.2   315 9.5
2003-04-24 04:44:37 51°13.6 2°56.1 127.2   324 9.5
2003-04-24 04:44:41 51°13.6 2°56.1 127.2   56 9.5
2003-04-24 04:44:47 51°13.6 2°56.1 127.2   97 9.5
2003-04-24 04:44:51 51°13.6 2°56.1 127.2   85 9.5
2003-04-24 04:44:57 51°13.6 2°56.1 127.2   90 9.6
2003-04-24 04:45:01 51°13.6 2°56.1 127.2   99 -999
2003-04-24 04:45:07 51°13.6 2°56.1 127.2   276 -999
2003-04-24 04:45:11 51°13.6 2°56.1 127.2   331 9.5
2003-04-24 04:45:17 51°13.6 2°56.1 127.2   335 -999
2003-04-24 04:45:21 51°13.6 2°56.1 127.2   43 9.6
2003-04-24 04:45:27 51°13.6 2°56.1 127.2   126 9.6
2003-04-24 04:45:31 51°13.6 2°56.1 127.2   62 9.4
2003-04-24 04:45:37 51°13.6 2°56.1 127.2   112 9.6
2003-04-24 04:45:41 51°13.6 2°56.1 127.3   43 9.4
2003-04-24 04:45:47 51°13.6 2°56.1 127.3   349 9.6
2003-04-24 04:45:51 51°13.6 2°56.1 127.3   335 9.4
2003-04-24 04:45:57 51°13.6 2°56.1 127.3   250 -999
2003-04-24 04:46:01 51°13.6 2°56.1 127.2   286 9.4
2003-04-24 04:46:07 51°13.6 2°56.1 127.2   297 9.4
2003-04-24 04:46:11 51°13.6 2°56.1 127.2   232 9.4
2003-04-24 04:46:17 51°13.6 2°56.1 127.2   241 9.4
2003-04-24 04:46:21 51°13.6 2°56.1 127.2   223 9.4
2003-04-24 04:46:27 51°13.6 2°56.1 127.2   300 9.5
2003-04-24 04:46:31 51°13.6 2°56.1 127.2   102 -999
2003-04-24 04:46:37 51°13.6 2°56.1 127.2   127 9.5
2003-04-24 04:46:41 51°13.6 2°56.1 127.2   152 9.5
2003-04-24 04:46:47 51°13.6 2°56.1 127.3   151 9.8
2003-04-24 04:46:51 51°13.6 2°56.1 127.5   149 9.4
2003-04-24 04:46:57 51°13.6 2°56.1 127.8   217 9.5
2003-04-24 04:47:01 51°13.6 2°56.1 128.2   275 9.6
2003-04-24 04:47:07 51°13.6 2°56.1 128.4   275 9.5
2003-04-24 04:47:11 51°13.6 2°56.1 128.4   62 9.5
2003-04-24 04:47:17 51°13.6 2°56.1 128.4   44 9.6
2003-04-24 04:47:21 51°13.6 2°56.1 128.2   4 -999
2003-04-24 04:47:27 51°13.6 2°56.1 128.1   267 9.5
2003-04-24 04:47:31 51°13.6 2°56.1 128.1   223 9.6
2003-04-24 04:47:37 51°13.6 2°56.1 128.2   237 9.6
2003-04-24 04:47:41 51°13.6 2°56.1 128.2   39 9.5
2003-04-24 04:47:47 51°13.6 2°56.1 128.2   50 9.6
2003-04-24 04:47:51 51°13.6 2°56.1 128.2   27 9.5
2003-04-24 04:47:57 51°13.6 2°56.1 128   38 9.5
2003-04-24 04:48:01 51°13.6 2°56.1 127.8   43 9.6
2003-04-24 04:48:07 51°13.6 2°56.1 127.7   46 9.6
2003-04-24 04:48:11 51°13.6 2°56.1 127.4   88 9.4
2003-04-24 04:48:17 51°13.6 2°56.1 126.9   111 9.6
2003-04-24 04:48:21 51°13.6 2°56.1 126.3   179 9.5
2003-04-24 04:48:27 51°13.6 2°56.1 125.7   182 9.5
2003-04-24 04:48:31 51°13.6 2°56.1 125   204 9.5
2003-04-24 04:48:37 51°13.6 2°56.1 124.1   207 9.6
2003-04-24 04:48:41 51°13.6 2°56.1 123.4   209 9.6
2003-04-24 04:48:47 51°13.6 2°56.1 122.6   203 9.5
2003-04-24 04:48:51 51°13.6 2°56.1 121.9   199 9.5
2003-04-24 04:48:57 51°13.6 2°56.1 121.1 0.1 204 9.6
2003-04-24 04:49:01 51°13.6 2°56.1 120.3 0.1 197 9.5
2003-04-24 04:49:07 51°13.6 2°56.1 119.5 0.1 199 9.8
2003-04-24 04:49:11 51°13.6 2°56.1 118.7 0.1 201 -999
2003-04-24 04:49:17 51°13.6 2°56.1 117.8 0.1 201 9.6
2003-04-24 04:49:21 51°13.6 2°56.1 117.1 0.1 187 9.5
2003-04-24 04:49:27 51°13.6 2°56.1 116.2 0.1 180 9.7
2003-04-24 04:49:31 51°13.6 2°56.1 115.4 0.1 176 9.6
2003-04-24 04:49:37 51°13.6 2°56.1 114.6 0.1 184 9.5
2003-04-24 04:49:41 51°13.6 2°56.1 113.9 0.1 205 9.6
2003-04-24 04:49:47 51°13.6 2°56.1 113   221 9.7
2003-04-24 04:49:51 51°13.6 2°56.1 112.3 0.1 291 9.7
2003-04-24 04:49:57 51°13.6 2°56.1 111.7 0.1 292 9.7
2003-04-24 04:50:01 51°13.6 2°56.1 111.5 0.5 293 9.6
2003-04-24 04:50:07 51°13.6 2°56.1 111.3 0.8 290 9.6
2003-04-24 04:50:11 51°13.6 2°56.1 111.2 1.2 290 9.7
2003-04-24 04:50:17 51°13.6 2°56.09 111.4 1.5 289 9.8
2003-04-24 04:50:21 51°13.6 2°56.09 111.9 1.9 291 10.1
2003-04-24 04:50:27 51°13.61 2°56.08 112.9 2.1 291 -999
2003-04-24 04:50:31 51°13.61 2°56.08 113.8 2.4 293 -999
2003-04-24 04:50:37 51°13.61 2°56.07 114.2 2.6 293 -999
2003-04-24 04:50:41 51°13.61 2°56.07 114.3 2.9 292 -999
2003-04-24 04:50:47 51°13.61 2°56.06 114.4 3 292 -999
2003-04-24 04:50:51 51°13.61 2°56.05 114.5 3.3 292 -999
2003-04-24 04:50:57 51°13.61 2°56.04 114.4 3.5 292 -999
2003-04-24 04:51:01 51°13.62 2°56.04 114.3 3.7 292 -999
2003-04-24 04:51:07 51°13.62 2°56.03 114.3 3.8 291 -999
2003-04-24 04:51:11 51°13.62 2°56.02 114.6 4 291 -999
2003-04-24 04:51:17 51°13.62 2°56.01 115.4 4.1 291 -999
2003-04-24 04:51:21 51°13.62 2°56 116.1 4.3 292 -999
2003-04-24 04:51:27 51°13.63 2°55.99 116.8 4.4 292 -999
2003-04-24 04:51:31 51°13.63 2°55.98 117.7 4.6 293 -999
2003-04-24 04:51:37 51°13.63 2°55.97 118.5 4.7 293 -999
2003-04-24 04:51:41 51°13.63 2°55.96 119.3 4.9 294 -999
2003-04-24 04:51:47 51°13.64 2°55.95 120 5 295 -999
2003-04-24 04:51:51 51°13.64 2°55.94 120.4 5.1 296 -999
2003-04-24 04:51:57 51°13.64 2°55.93 120.6 5.1 296 -999
2003-04-24 04:52:01 51°13.65 2°55.92 120.6 5.1 297 -999
2003-04-24 04:52:07 51°13.65 2°55.91 120.6 5.1 297 -999
2003-04-24 04:52:11 51°13.65 2°55.9 120.3 5.2 297 -999
2003-04-24 04:52:17 51°13.66 2°55.89 119.7 5.1 297 -999
2003-04-24 04:52:23 51°13.66 2°55.88 119 5.1 297 -999
2003-04-24 04:52:27 51°13.66 2°55.87 118.1 5.1 297 -999
2003-04-24 04:52:31 51°13.67 2°55.86 116.9 5 296 -999
2003-04-24 04:52:37 51°13.67 2°55.85 115.6 4.9 295 -999
2003-04-24 04:52:41 51°13.67 2°55.84 114 4.7 293 -999
2003-04-24 04:52:47 51°13.67 2°55.83 112.3 4.6 292 -999
2003-04-24 04:52:51 51°13.68 2°55.83 110.3 4.4 290 -999
2003-04-24 04:52:57 51°13.68 2°55.82 108.3 4.3 289 -999
2003-04-24 04:53:03 51°13.68 2°55.81 106.2 4.1 288 -999
2003-04-24 04:53:07 51°13.68 2°55.8 103.9 4 287 -999
2003-04-24 04:53:11 51°13.68 2°55.79 101.6 3.9 284 -999
2003-04-24 04:53:17 51°13.68 2°55.78 99.4 3.8 282 -999
2003-04-24 04:53:21 51°13.68 2°55.78 97.5 3.6 280 5.3
2003-04-24 04:53:27 51°13.68 2°55.77 95.1 3.5 278 -999
2003-04-24 04:53:31 51°13.68 2°55.76 92.8 3.4 276 13.3
2003-04-24 04:53:37 51°13.68 2°55.75 90.9 3.3 274 -999
2003-04-24 04:53:41 51°13.68 2°55.75 88.7 3.1 273 -999
2003-04-24 04:53:47 51°13.68 2°55.74 86.3 3 271 6.5
2003-04-24 04:53:51 51°13.68 2°55.74 84.5 2.8 270 -999
2003-04-24 04:53:57 51°13.68 2°55.73 81.7 2.5 270 -999
2003-04-24 04:54:01 51°13.68 2°55.73 78.3 1.8 271 -999
2003-04-24 04:54:07 51°13.68 2°55.73 73.6 1.3 272 13.2
2003-04-24 04:54:13 51°13.68 2°55.72 68.9 0.9 279 -999
2003-04-24 04:54:17 51°13.68 2°55.72 65.4 0.6 286 -999
2003-04-24 04:54:21 51°13.69 2°55.72 61 0.5 307 -999
2003-04-24 04:54:27 51°13.69 2°55.72 56.1 0.4 326 13
2003-04-24 04:54:31 51°13.69 2°55.72 52.9 0.5 350 -999
2003-04-24 04:54:37 51°13.69 2°55.72 47.8 0.5 1 -999
2003-04-24 04:54:41 51°13.69 2°55.72 43.4 0.7 8 -999
2003-04-24 04:54:47 51°13.69 2°55.72 39 0.8 10 -999
2003-04-24 04:54:51 51°13.69 2°55.72 34.4 1 11 -999
2003-04-24 04:54:57 51°13.69 2°55.72 29.8 1.1 12 -999
2003-04-24 04:55:01 51°13.69 2°55.72 26.2 1.2 10 14
2003-04-24 04:55:07 51°13.7 2°55.72 21.6 1.3 8 -999
2003-04-24 04:55:11 51°13.7 2°55.72 15.9 1.4 3 -999
2003-04-24 04:55:17 51°13.7 2°55.72 11.2 1.5 1 -999
2003-04-24 04:55:21 51°13.7 2°55.72 7.6 1.7 357 13.6
2003-04-24 04:55:27 51°13.71 2°55.72 4.2 1.8 354 13.7
2003-04-24 04:55:31 51°13.71 2°55.72 1.4 2 351 13.5
2003-04-24 04:55:37 51°13.71 2°55.72 358.6 2.1 349 13.1
2003-04-24 04:55:41 51°13.71 2°55.72 355.5 2.3 346 13
2003-04-24 04:55:47 51°13.72 2°55.72 351.4 2.4 344 13
2003-04-24 04:55:51 51°13.72 2°55.72 348.7 2.6 341 12.8
2003-04-24 04:55:57 51°13.73 2°55.71 344.7 2.6 339 12.5
2003-04-24 04:56:01 51°13.73 2°55.71 342.4 2.8 336 12.3
2003-04-24 04:56:07 51°13.73 2°55.71 340 2.9 335 12.1
2003-04-24 04:56:11 51°13.74 2°55.71 338.3 3.1 333 12
2003-04-24 04:56:17 51°13.74 2°55.7 337.2 3.3 332 11.9
2003-04-24 04:56:21 51°13.75 2°55.7 337 3.6 332 11.7
2003-04-24 04:56:27 51°13.75 2°55.69 337.3 3.8 332 11.8
2003-04-24 04:56:31 51°13.76 2°55.69 338.1 4.2 333 11.7
2003-04-24 04:56:37 51°13.76 2°55.68 338.9 4.4 333 11.8
2003-04-24 04:56:41 51°13.77 2°55.68 339.2 4.7 334 11.7
2003-04-24 04:56:47 51°13.78 2°55.67 339.6 4.9 334 11.9
2003-04-24 04:56:51 51°13.79 2°55.66 339.9 5.2 335 12
2003-04-24 04:56:57 51°13.8 2°55.65 340 5.4 335 12
2003-04-24 04:57:01 51°13.81 2°55.65 340.2 5.7 335 12
2003-04-24 04:57:07 51°13.82 2°55.64 340.7 5.8 336 12
2003-04-24 04:57:11 51°13.82 2°55.64 341.1 6 336 12
2003-04-24 04:57:17 51°13.83 2°55.64 341.1 6.2 336 12.1
2003-04-24 04:57:21 51°13.83 2°55.63 340.7 6.3 336 12
2003-04-24 04:57:27 51°13.84 2°55.63 340.7 6.4 336 12
2003-04-24 04:57:31 51°13.85 2°55.62 341.1 6.6 337 12
2003-04-24 04:57:37 51°13.86 2°55.62 341.2 6.7 337 11.9
2003-04-24 04:57:41 51°13.86 2°55.61 341.4 6.8 337 11.9
2003-04-24 04:57:47 51°13.87 2°55.6 341.6 6.8 337 11.9
2003-04-24 04:57:51 51°13.88 2°55.6 341.7 6.9 337 11.9
2003-04-24 04:57:57 51°13.89 2°55.59 341.8 7 337 11.9
2003-04-24 04:58:01 51°13.9 2°55.59 341.9 7.1 337 11.9
2003-04-24 04:58:07 51°13.91 2°55.58 342.1 7.1 337 12
2003-04-24 04:58:11 51°13.92 2°55.58 342.2 7.2 337 12
2003-04-24 04:58:17 51°13.93 2°55.57 341.9 7.2 337 12
2003-04-24 04:58:21 51°13.94 2°55.56 341.7 7.3 337 12
2003-04-24 04:58:27 51°13.95 2°55.56 341.5 7.3 337 11.8
2003-04-24 04:58:31 51°13.95 2°55.55 341.8 7.3 337 11.8
2003-04-24 04:58:37 51°13.97 2°55.54 342 7.3 337 11.8
2003-04-24 04:58:41 51°13.97 2°55.54 341.9 7.3 337 11.8
2003-04-24 04:58:47 51°13.99 2°55.53 341.8 7.3 337 11.9
2003-04-24 04:58:51 51°13.99 2°55.52 342 7.3 337 11.9
2003-04-24 04:58:57 51°14 2°55.52 342 7.3 337 11.9
2003-04-24 04:59:01 51°14.01 2°55.51 341.8 7.4 337 11.8
2003-04-24 04:59:07 51°14.02 2°55.51 341.5 7.4 337 11.8
2003-04-24 04:59:11 51°14.03 2°55.5 341.7 7.4 337 11.7
2003-04-24 04:59:17 51°14.04 2°55.5 342.7 7.4 338 11.8
2003-04-24 04:59:23 51°14.05 2°55.49 343.3 7.4 339 11.8
2003-04-24 04:59:27 51°14.06 2°55.48 343.6 7.4 339 11.8
2003-04-24 04:59:31 51°14.07 2°55.48 344 7.4 340 11.7
2003-04-24 04:59:37 51°14.08 2°55.47 344.8 7.4 340 11.7
2003-04-24 04:59:41 51°14.09 2°55.47 345.1 7.4 340 11.7
2003-04-24 04:59:47 51°14.1 2°55.46 344.5 7.5 340 11.8
2003-04-24 04:59:51 51°14.1 2°55.46 343.4 7.5 339 11.9
2003-04-24 04:59:57 51°14.12 2°55.45 343 7.6 339 11.8
2003-04-24 05:00:01 51°14.12 2°55.44 342.8 7.7 338 11.9
2003-04-24 05:00:07 51°14.14 2°55.44 342.5 7.7 338 11.9
2003-04-24 05:00:11 51°14.14 2°55.43 341.7 7.8 337 11.9
2003-04-24 05:00:17 51°14.15 2°55.42 341 7.8 336 11.9
2003-04-24 05:00:21 51°14.16 2°55.42 340.6 7.8 336 12
2003-04-24 05:00:27 51°14.17 2°55.41 339.6 7.8 335 11.9
2003-04-24 05:00:31 51°14.18 2°55.4 337.8 7.9 333 12
2003-04-24 05:00:37 51°14.19 2°55.39 336.2 7.9 331 11.9
2003-04-24 05:00:41 51°14.2 2°55.38 334.8 7.9 329 12
2003-04-24 05:00:47 51°14.21 2°55.37 333.3 7.9 328 12
2003-04-24 05:00:51 51°14.22 2°55.36 331.2 7.9 325 12
2003-04-24 05:00:57 51°14.23 2°55.35 328.1 7.9 323 12
2003-04-24 05:01:03 51°14.24 2°55.34 325.3 7.9 320 12.2
2003-04-24 05:01:07 51°14.25 2°55.33 323.3 7.9 319 12
2003-04-24 05:01:11 51°14.25 2°55.32 321.7 7.9 317 12
2003-04-24 05:01:17 51°14.26 2°55.3 320.4 7.9 315 12.1
2003-04-24 05:01:21 51°14.27 2°55.29 318.6 8 314 12
2003-04-24 05:01:27 51°14.28 2°55.27 317 8 313 12.1
2003-04-24 05:01:31 51°14.28 2°55.26 316 8 311 12.1
2003-04-24 05:01:37 51°14.29 2°55.25 315 8 311 12.2
2003-04-24 05:01:43 51°14.3 2°55.23 314.2 8 310 12.2
2003-04-24 05:01:47 51°14.3 2°55.22 314.2 8 310 12.2
2003-04-24 05:01:51 51°14.31 2°55.21 314.3 8 310 12.1
2003-04-24 05:01:57 51°14.32 2°55.19 313.5 8 309 12.1
2003-04-24 05:02:01 51°14.33 2°55.18 312.7 8 309 12.1
2003-04-24 05:02:07 51°14.33 2°55.16 312.6 8 309 12.1
2003-04-24 05:02:11 51°14.34 2°55.15 312.6 8 308 12.2
2003-04-24 05:02:17 51°14.35 2°55.14 312.2 8 308 12.2
2003-04-24 05:02:21 51°14.35 2°55.13 311.8 8 307 11.5
2003-04-24 05:02:27 51°14.36 2°55.11 311.4 8 307 11.6
2003-04-24 05:02:31 51°14.37 2°55.1 311.1 8 307 11.8
2003-04-24 05:02:37 51°14.37 2°55.08 310.7 8 307 12.3
2003-04-24 05:02:41 51°14.38 2°55.07 310.6 8 309 12.5
2003-04-24 05:02:47 51°14.39 2°55.05 311.3 8 311 12.6
2003-04-24 05:02:53 51°14.4 2°55.04 312.7 8 314 12.5
2003-04-24 05:02:57 51°14.4 2°55.03 313.5 8 316 12.5
2003-04-24 05:03:01 51°14.41 2°55.02 313.8 8 316 12.6
2003-04-24 05:03:07 51°14.42 2°55 313 8 316 12.7
2003-04-24 05:03:11 51°14.43 2°54.99 311.3 8.2 314 12.5
2003-04-24 05:03:17 51°14.44 2°54.98 308.6 8.4 311 12.5
2003-04-24 05:03:21 51°14.44 2°54.96 305 8.7 307 12.3
2003-04-24 05:03:27 51°14.45 2°54.94 302 9 304 12.3
2003-04-24 05:03:31 51°14.45 2°54.93 299.5 9.3 300 12.4
2003-04-24 05:03:37 51°14.46 2°54.9 296.4 9.5 297 12.3
2003-04-24 05:03:41 51°14.46 2°54.89 292.6 9.6 292 12.2
2003-04-24 05:03:47 51°14.47 2°54.86 288.6 9.7 289 12.7
2003-04-24 05:03:51 51°14.47 2°54.85 284.5 9.9 284 12.3
2003-04-24 05:03:57 51°14.47 2°54.82 280 10 280 13
2003-04-24 05:04:01 51°14.47 2°54.8 276.5 10.2 275 12.4
2003-04-24 05:04:07 51°14.47 2°54.77 273.7 10.3 273 12.9
2003-04-24 05:04:11 51°14.47 2°54.75 271.1 10.5 270 12.9
2003-04-24 05:04:17 51°14.47 2°54.73 268.6 10.6 268 13
2003-04-24 05:04:21 51°14.47 2°54.71 266.3 10.8 264 12.9
2003-04-24 05:04:27 51°14.47 2°54.68 263.8 10.9 263 13
2003-04-24 05:04:33 51°14.46 2°54.65 261.3 11 259 13
2003-04-24 05:04:37 51°14.46 2°54.63 258.8 11 257 12.3
2003-04-24 05:04:41 51°14.45 2°54.61 256.3 11 254 12.4
2003-04-24 05:04:47 51°14.45 2°54.58 253.5 11 252 12.7
2003-04-24 05:04:51 51°14.44 2°54.57 251.1 11 248 12.4
2003-04-24 05:04:57 51°14.43 2°54.54 248.4 11.1 247 12.6
2003-04-24 05:05:01 51°14.43 2°54.52 246.6 11.1 245 12.7
2003-04-24 05:05:07 51°14.42 2°54.5 247.5 11.1 245 12.7
2003-04-24 05:05:11 51°14.42 2°54.48 246.4 11.1 243 12.7
2003-04-24 05:05:17 51°14.41 2°54.45 244.3 11.1 242 12.5
2003-04-24 05:05:21 51°14.4 2°54.44 242.7 11.2 240 12.3
2003-04-24 05:05:27 51°14.39 2°54.41 242.1 11.1 240 11.8
2003-04-24 05:05:31 51°14.38 2°54.39 241.6 11.1 239 11.7
2003-04-24 05:05:37 51°14.37 2°54.37 241.5 11.1 239 11.7
2003-04-24 05:05:41 51°14.37 2°54.35 241.4 11.2 239 11.6
2003-04-24 05:05:47 51°14.36 2°54.32 241.6 11.2 240 11.5
2003-04-24 05:05:51 51°14.35 2°54.31 241.6 11.2 240 11.5
2003-04-24 05:05:57 51°14.34 2°54.28 242 11.2 240 11.4
2003-04-24 05:06:01 51°14.34 2°54.26 242.4 11.2 240 11.4
2003-04-24 05:06:07 51°14.33 2°54.24 242.4 11.2 240 11.4
2003-04-24 05:06:11 51°14.32 2°54.22 242.3 11.2 240 11.4
2003-04-24 05:06:17 51°14.31 2°54.2 242.4 11.2 240 11.5
2003-04-24 05:06:23 51°14.3 2°54.17 242.6 11.2 241 11.4
2003-04-24 05:06:27 51°14.3 2°54.15 242.6 11.2 240 11.4
2003-04-24 05:06:31 51°14.29 2°54.14 242.4 11.2 240 11.3
2003-04-24 05:06:37 51°14.28 2°54.11 242.3 11.2 240 11.3
2003-04-24 05:06:41 51°14.27 2°54.09 242.3 11.2 240 11.3
2003-04-24 05:06:47 51°14.27 2°54.07 242.3 11.2 240 11.3
2003-04-24 05:06:51 51°14.26 2°54.05 242.4 11.2 241 11.2
2003-04-24 05:06:57 51°14.25 2°54.02 243.1 11.2 241 11.3
2003-04-24 05:07:01 51°14.24 2°54.01 242.8 11.2 241 11.3
2003-04-24 05:07:07 51°14.23 2°53.98 242.8 11.2 240 11.2
2003-04-24 05:07:11 51°14.23 2°53.96 242.9 11.2 241 11.3
2003-04-24 05:07:17 51°14.22 2°53.94 242.8 11.2 240 11.3
2003-04-24 05:07:21 51°14.21 2°53.92 242.5 11.2 241 11.3
2003-04-24 05:07:27 51°14.2 2°53.89 242.9 11.2 241 11.3
2003-04-24 05:07:33 51°14.2 2°53.87 242.6 11.2 240 11.3
2003-04-24 05:07:37 51°14.19 2°53.85 242.4 11.2 240 11.3
2003-04-24 05:07:41 51°14.18 2°53.83 242.6 11.2 241 11.3
2003-04-24 05:07:47 51°14.17 2°53.81 242.9 11.2 241 11.3
2003-04-24 05:07:51 51°14.17 2°53.79 243.2 11.2 241 11.3
2003-04-24 05:07:57 51°14.16 2°53.76 243.1 11.2 241 11.3
2003-04-24 05:08:03 51°14.15 2°53.74 243 11.2 241 11.4
2003-04-24 05:08:07 51°14.14 2°53.72 242.6 11.2 240 11.4
2003-04-24 05:08:11 51°14.14 2°53.71 241.4 11.2 239 11.4
2003-04-24 05:08:17 51°14.13 2°53.68 240.8 11.1 238 11.4
2003-04-24 05:08:21 51°14.12 2°53.67 238.7 11.1 236 11.4
2003-04-24 05:08:27 51°14.11 2°53.64 237.4 11.1 235 11.4
2003-04-24 05:08:31 51°14.1 2°53.63 236.1 11.1 233 11.4
2003-04-24 05:08:37 51°14.09 2°53.6 234.8 11.2 232 11.4
2003-04-24 05:08:41 51°14.08 2°53.59 234.8 11.2 232 11.4
2003-04-24 05:08:47 51°14.07 2°53.56 235.7 11.2 233 11.4
2003-04-24 05:08:51 51°14.06 2°53.55 237.1 11.2 235 11.4
2003-04-24 05:08:57 51°14.05 2°53.52 238.7 11.2 236 11.4
2003-04-24 05:09:01 51°14.05 2°53.5 240.6 11.2 238 11.4
2003-04-24 05:09:06 51°14.04 2°53.48 241.6 11.2 240 11.4
2003-04-24 05:09:12 51°14.03 2°53.46 242.8 11.2 241 11.4
2003-04-24 05:09:17 51°14.02 2°53.43 243.3 11.2 241 11.5
2003-04-24 05:09:21 51°14.02 2°53.42 243.6 11.2 242 11.5
2003-04-24 05:09:26 51°14.01 2°53.39 244 11.2 242 11.5
2003-04-24 05:09:31 51°14 2°53.37 244.5 11.2 243 11.6
2003-04-24 05:09:37 51°14 2°53.35 245.2 11.2 243 11.7
2003-04-24 05:09:41 51°13.99 2°53.33 245.7 11.3 244 11.7
2003-04-24 05:09:46 51°13.98 2°53.31 245.8 11.3 244 11.7
2003-04-24 05:09:51 51°13.98 2°53.28 245.3 11.3 244 11.7
2003-04-24 05:09:56 51°13.97 2°53.26 245.7 11.3 244 11.7
2003-04-24 05:10:01 51°13.96 2°53.24 245.8 11.3 244 11.7
2003-04-24 05:10:07 51°13.96 2°53.21 245.9 11.2 244 11.7
2003-04-24 05:10:11 51°13.95 2°53.19 246 11.2 244 11.8
2003-04-24 05:10:16 51°13.94 2°53.17 245.5 11.2 244 11.8
2003-04-24 05:10:21 51°13.94 2°53.15 245.3 11.2 243 11.9
2003-04-24 05:10:27 51°13.93 2°53.12 245.3 11.2 243 11.9
2003-04-24 05:10:31 51°13.92 2°53.11 245.2 11.3 243 12.1
2003-04-24 05:10:37 51°13.91 2°53.08 245.1 11.5 243 12.1
2003-04-24 05:10:41 51°13.91 2°53.06 245.3 11.8 243 12.1
2003-04-24 05:10:47 51°13.9 2°53.03 245.4 11.9 244 12.1
2003-04-24 05:10:51 51°13.89 2°53.01 245.5 12.2 243 12
2003-04-24 05:10:57 51°13.88 2°52.98 244.5 12.3 243 12.1
2003-04-24 05:11:01 51°13.88 2°52.96 244.8 12.4 243 12.1
2003-04-24 05:11:07 51°13.87 2°52.93 244.7 12.5 243 12.1
2003-04-24 05:11:11 51°13.86 2°52.91 245 12.6 243 12.1
2003-04-24 05:11:17 51°13.85 2°52.88 245.4 12.7 243 12.2
2003-04-24 05:11:21 51°13.84 2°52.86 245.7 12.8 244 12.2
2003-04-24 05:11:27 51°13.84 2°52.83 245.7 12.8 244 12.2
2003-04-24 05:11:31 51°13.83 2°52.81 245.7 12.8 244 12.3
2003-04-24 05:11:37 51°13.82 2°52.78 245.5 12.8 243 12.3
2003-04-24 05:11:41 51°13.81 2°52.76 244.8 12.9 243 12.3
2003-04-24 05:11:47 51°13.8 2°52.73 244.7 12.9 243 12.3
2003-04-24 05:11:51 51°13.8 2°52.71 245 12.9 243 12.3
2003-04-24 05:11:57 51°13.79 2°52.68 245.5 12.9 243 12.4
2003-04-24 05:12:01 51°13.78 2°52.66 245.8 12.9 244 12.4
2003-04-24 05:12:07 51°13.77 2°52.63 245.8 12.9 243 12.3
2003-04-24 05:12:11 51°13.76 2°52.61 245 12.9 243 12.4
2003-04-24 05:12:16 51°13.76 2°52.58 244.5 12.9 242 12.4
2003-04-24 05:12:21 51°13.75 2°52.56 244.5 12.9 242 12.4
2003-04-24 05:12:27 51°13.74 2°52.53 244.8 12.9 243 12.5
2003-04-24 05:12:30 51°13.73 2°52.51 245 12.9 243 12.5
2003-04-24 05:12:36 51°13.72 2°52.48 244.8 12.9 243 12.4
2003-04-24 05:12:43 51°13.71 2°52.45 245.3 12.9 243 12.6
2003-04-24 05:12:47 51°13.7 2°52.43 244.9 12.9 243 12.6
2003-04-24 05:12:51 51°13.7 2°52.41 244.8 12.9 242 12.6
2003-04-24 05:12:57 51°13.69 2°52.37 244.6 13 243 12.6
2003-04-24 05:13:00 51°13.68 2°52.36 245.1 12.9 243 12.6
2003-04-24 05:13:07 51°13.67 2°52.32 245.2 12.9 243 12.7
2003-04-24 05:13:11 51°13.66 2°52.3 245.2 12.9 243 12.6
2003-04-24 05:13:16 51°13.66 2°52.28 244.9 12.9 243 12.6
2003-04-24 05:13:21 51°13.65 2°52.25 244.8 12.9 243 12.6
2003-04-24 05:13:27 51°13.64 2°52.22 245.4 12.9 243 12.7
2003-04-24 05:13:30 51°13.63 2°52.21 245.6 12.9 243 12.8
2003-04-24 05:13:37 51°13.62 2°52.17 245.3 12.9 243 12.7
2003-04-24 05:13:41 51°13.62 2°52.15 245.1 13 243 12.8
2003-04-24 05:13:46 51°13.61 2°52.13 245 13 243 12.7
2003-04-24 05:13:53 51°13.6 2°52.09 245 13 243 12.7
2003-04-24 05:13:57 51°13.59 2°52.07 245.3 12.9 243 12.8
2003-04-24 05:14:01 51°13.58 2°52.05 245.8 12.9 243 12.8
2003-04-24 05:14:07 51°13.57 2°52.02 245 12.9 243 12.8
2003-04-24 05:14:11 51°13.57 2°52 244.9 12.9 243 12.8
2003-04-24 05:14:17 51°13.56 2°51.97 244.9 12.9 243 12.8
2003-04-24 05:14:21 51°13.55 2°51.95 244.7 12.9 243 12.8
2003-04-24 05:14:27 51°13.54 2°51.92 244.7 12.9 243 12.9
2003-04-24 05:14:31 51°13.53 2°51.9 245.1 12.9 243 12.8
2003-04-24 05:14:37 51°13.52 2°51.87 245.5 12.9 244 12.8
2003-04-24 05:14:41 51°13.52 2°51.85 245.6 12.9 244 12.9
2003-04-24 05:14:47 51°13.51 2°51.82 245.9 12.9 243 12.8
2003-04-24 05:14:51 51°13.5 2°51.8 245.1 12.9 243 12.8
2003-04-24 05:14:57 51°13.49 2°51.77 244.7 12.9 243 12.9
2003-04-24 05:15:01 51°13.49 2°51.75 244.5 12.9 242 12.9
2003-04-24 05:15:06 51°13.48 2°51.72 244.5 12.9 242 12.9
2003-04-24 05:15:11 51°13.47 2°51.69 244 12.9 242 12.9
2003-04-24 05:15:17 51°13.46 2°51.66 244.2 12.9 242 12.9
2003-04-24 05:15:21 51°13.45 2°51.64 244.7 12.9 242 12.9
2003-04-24 05:15:27 51°13.44 2°51.61 244.4 12.8 243 12.9
2003-04-24 05:15:33 51°13.43 2°51.58 244.5 12.8 242 12.9
2003-04-24 05:15:36 51°13.43 2°51.57 244.5 12.9 242 12.9
2003-04-24 05:15:41 51°13.42 2°51.54 245 12.8 243 13
2003-04-24 05:15:47 51°13.41 2°51.51 245.1 12.9 243 13
2003-04-24 05:15:51 51°13.4 2°51.49 245.1 12.9 243 12.9
2003-04-24 05:15:57 51°13.39 2°51.46 245.5 12.9 243 13
2003-04-24 05:16:01 51°13.39 2°51.44 245.7 12.8 243 13
2003-04-24 05:16:07 51°13.38 2°51.41 244.8 12.8 242 13
2003-04-24 05:16:11 51°13.37 2°51.39 243.7 12.8 241 13
2003-04-24 05:16:17 51°13.36 2°51.36 241.6 12.8 239 13
2003-04-24 05:16:21 51°13.35 2°51.34 241.6 12.8 239 13
2003-04-24 05:16:27 51°13.34 2°51.32 240.9 12.9 238 13
2003-04-24 05:16:31 51°13.33 2°51.3 240.9 12.9 239 13
2003-04-24 05:16:37 51°13.32 2°51.27 240.9 12.9 239 13
2003-04-24 05:16:41 51°13.31 2°51.25 241 12.9 239 13
2003-04-24 05:16:47 51°13.3 2°51.22 241.3 12.8 239 13
2003-04-24 05:16:51 51°13.3 2°51.2 241.3 12.8 238 13
2003-04-24 05:16:57 51°13.28 2°51.17 240.5 12.9 238 13.1
2003-04-24 05:17:01 51°13.28 2°51.15 240.3 12.9 238 13.1
2003-04-24 05:17:07 51°13.27 2°51.12 240 12.9 238 13.1
2003-04-24 05:17:11 51°13.26 2°51.1 240.5 12.9 238 13.1
2003-04-24 05:17:17 51°13.25 2°51.07 240.8 12.9 238 13.1
2003-04-24 05:17:23 51°13.24 2°51.04 240.9 12.9 239 13.2
2003-04-24 05:17:27 51°13.23 2°51.03 241.2 12.9 239 13.2
2003-04-24 05:17:31 51°13.22 2°51.01 241.2 12.8 239 13.2
2003-04-24 05:17:37 51°13.21 2°50.98 240.9 12.8 238 13.2
2003-04-24 05:17:41 51°13.2 2°50.96 239.9 12.8 237 13.1
2003-04-24 05:17:46 51°13.19 2°50.93 239.5 12.8 238 13.2
2003-04-24 05:17:51 51°13.18 2°50.91 240.3 12.8 238 13.2
2003-04-24 05:17:57 51°13.17 2°50.88 240.9 12.8 239 13.2
2003-04-24 05:18:01 51°13.16 2°50.86 241.2 12.9 239 13.2
2003-04-24 05:18:06 51°13.16 2°50.84 242 12.9 239 13.1
2003-04-24 05:18:11 51°13.15 2°50.81 241.7 12.9 239 13.2
2003-04-24 05:18:17 51°13.14 2°50.78 241.3 12.9 239 13.2
2003-04-24 05:18:21 51°13.13 2°50.76 241.5 12.8 239 13.2
2003-04-24 05:18:27 51°13.12 2°50.74 241.8 12.8 239 13.2
2003-04-24 05:18:33 51°13.11 2°50.71 241.3 12.8 239 13.3
2003-04-24 05:18:37 51°13.1 2°50.69 241.4 12.8 239 13.3
2003-04-24 05:18:41 51°13.09 2°50.67 240.9 12.8 239 13.3
2003-04-24 05:18:47 51°13.08 2°50.64 240.8 12.8 239 13.3
2003-04-24 05:18:51 51°13.07 2°50.62 241.3 12.8 239 13.3
2003-04-24 05:18:57 51°13.06 2°50.59 241.4 12.8 239 13.3
2003-04-24 05:19:03 51°13.05 2°50.56 241.7 12.9 240 13.3
2003-04-24 05:19:07 51°13.04 2°50.54 242.1 12.9 240 13.3
2003-04-24 05:19:11 51°13.04 2°50.52 241.9 12.9 240 13.3
2003-04-24 05:19:17 51°13.03 2°50.49 242.3 12.9 240 13.3
2003-04-24 05:19:21 51°13.02 2°50.47 242 12.9 239 13.3
2003-04-24 05:19:27 51°13.01 2°50.44 241.5 12.8 239 13.3
2003-04-24 05:19:31 51°13 2°50.42 241.4 12.8 239 13.3
2003-04-24 05:19:37 51°12.99 2°50.39 241.8 12.8 239 13.2
2003-04-24 05:19:41 51°12.98 2°50.38 241.6 12.8 239 13.3
2003-04-24 05:19:47 51°12.97 2°50.35 241.4 12.8 239 13.3
2003-04-24 05:19:51 51°12.96 2°50.33 241 12.8 239 13.3
2003-04-24 05:19:57 51°12.95 2°50.3 241.5 12.8 239 13.4
2003-04-24 05:20:01 51°12.95 2°50.28 241 12.8 239 13.3
2003-04-24 05:20:07 51°12.93 2°50.25 240.9 12.8 239 13.4
2003-04-24 05:20:13 51°12.92 2°50.22 241.4 12.8 239 13.4
2003-04-24 05:20:17 51°12.92 2°50.2 241.4 12.7 239 13.4
2003-04-24 05:20:21 51°12.91 2°50.18 240.9 12.7 238 13.4
2003-04-24 05:20:27 51°12.9 2°50.15 241 12.7 238 13.4
2003-04-24 05:20:31 51°12.89 2°50.14 240.6 12.7 238 13.4
2003-04-24 05:20:37 51°12.88 2°50.11 240.3 12.7 238 13.4
2003-04-24 05:20:41 51°12.87 2°50.09 241 12.7 238 13.4
2003-04-24 05:20:47 51°12.86 2°50.06 241.1 12.7 238 13.4
2003-04-24 05:20:51 51°12.85 2°50.04 240.9 12.7 239 13.4
2003-04-24 05:20:57 51°12.84 2°50.01 241.2 12.7 239 13.4
2003-04-24 05:21:01 51°12.84 2°49.99 241.8 12.7 239 13.4
2003-04-24 05:21:07 51°12.82 2°49.96 241.6 12.7 239 13.4
2003-04-24 05:21:11 51°12.82 2°49.94 241.6 12.7 239 13.4
2003-04-24 05:21:17 51°12.81 2°49.92 241.3 12.7 239 13.5
2003-04-24 05:21:21 51°12.8 2°49.9 240.9 12.7 238 13.4
2003-04-24 05:21:27 51°12.79 2°49.87 240.7 12.7 238 13.4
2003-04-24 05:21:31 51°12.78 2°49.85 240.6 12.8 238 13.4
2003-04-24 05:21:37 51°12.77 2°49.82 240.2 12.8 237 13.4
2003-04-24 05:21:41 51°12.76 2°49.8 239.5 12.8 237 13.4
2003-04-24 05:21:47 51°12.75 2°49.77 240.2 12.8 238 13.4
2003-04-24 05:21:51 51°12.74 2°49.75 240.8 12.8 239 13.4
2003-04-24 05:21:57 51°12.73 2°49.72 241.3 12.8 239 13.4
2003-04-24 05:22:03 51°12.72 2°49.69 241.6 12.8 239 13.4
2003-04-24 05:22:07 51°12.71 2°49.68 241.3 12.8 239 13.4
2003-04-24 05:22:11 51°12.71 2°49.66 241.4 12.9 239 13.4
2003-04-24 05:22:17 51°12.7 2°49.63 241.6 12.8 239 13.4
2003-04-24 05:22:21 51°12.69 2°49.61 241.6 12.8 239 13.5
2003-04-24 05:22:27 51°12.68 2°49.58 241.2 12.8 239 13.4
2003-04-24 05:22:31 51°12.67 2°49.56 240.9 12.8 238 13.4
2003-04-24 05:22:37 51°12.66 2°49.53 240.9 12.8 238 13.5
2003-04-24 05:22:41 51°12.65 2°49.51 241 12.8 239 13.4
2003-04-24 05:22:47 51°12.64 2°49.48 241.3 12.8 239 13.5
2003-04-24 05:22:51 51°12.63 2°49.46 241.8 12.8 240 13.5
2003-04-24 05:22:57 51°12.62 2°49.43 242.6 12.8 240 13.5
2003-04-24 05:23:01 51°12.62 2°49.41 242.9 12.8 241 13.6
2003-04-24 05:23:07 51°12.61 2°49.38 243.5 12.8 241 13.5
2003-04-24 05:23:13 51°12.6 2°49.35 243.8 12.8 242 13.5
2003-04-24 05:23:17 51°12.59 2°49.33 243.9 12.8 242 13.6
2003-04-24 05:23:21 51°12.58 2°49.31 243.6 12.9 241 13.5
2003-04-24 05:23:27 51°12.57 2°49.28 243.6 12.9 241 13.5
2003-04-24 05:23:31 51°12.56 2°49.26 243.1 12.8 241 13.5
2003-04-24 05:23:37 51°12.55 2°49.23 242.7 12.8 241 13.5
2003-04-24 05:23:42 51°12.54 2°49.21 242.9 12.8 241 13.6
2003-04-24 05:23:47 51°12.54 2°49.18 243.5 12.8 241 13.6
2003-04-24 05:23:51 51°12.53 2°49.16 243.4 12.8 241 13.6
2003-04-24 05:23:57 51°12.52 2°49.13 242.9 12.8 240 13.6
2003-04-24 05:24:01 51°12.51 2°49.12 242.7 12.8 240 13.6
2003-04-24 05:24:07 51°12.5 2°49.09 242.8 12.8 240 13.6
2003-04-24 05:24:11 51°12.49 2°49.07 243.1 12.8 241 13.6
2003-04-24 05:24:17 51°12.48 2°49.04 243.5 12.8 241 13.6
2003-04-24 05:24:21 51°12.48 2°49.02 243.4 12.8 241 13.6
2003-04-24 05:24:27 51°12.47 2°48.99 243.7 12.8 241 13.5
2003-04-24 05:24:31 51°12.46 2°48.97 243.4 12.8 241 13.6
2003-04-24 05:24:37 51°12.45 2°48.94 243.1 12.8 240 13.6
2003-04-24 05:24:41 51°12.44 2°48.92 242.8 12.8 240 13.6
2003-04-24 05:24:47 51°12.43 2°48.89 242.8 12.8 240 13.6
2003-04-24 05:24:53 51°12.42 2°48.86 243.4 12.8 241 13.5
2003-04-24 05:24:57 51°12.41 2°48.84 243.4 12.9 241 13.6
2003-04-24 05:25:01 51°12.41 2°48.82 243.9 12.9 242 13.6
2003-04-24 05:25:07 51°12.4 2°48.79 244.3 12.8 242 13.6
2003-04-24 05:25:11 51°12.39 2°48.77 244.4 12.8 242 13.6
2003-04-24 05:25:17 51°12.38 2°48.74 244.2 12.8 241 13.6
2003-04-24 05:25:21 51°12.37 2°48.72 243.2 12.8 241 13.6
2003-04-24 05:25:27 51°12.36 2°48.69 243 12.8 240 13.7
2003-04-24 05:25:31 51°12.36 2°48.67 242.8 12.8 240 13.7
2003-04-24 05:25:37 51°12.34 2°48.64 242.7 12.8 240 13.7
2003-04-24 05:25:41 51°12.34 2°48.62 242.6 12.8 240 13.6
2003-04-24 05:25:47 51°12.33 2°48.59 243.1 12.9 241 13.6
2003-04-24 05:25:51 51°12.32 2°48.57 243.3 12.9 241 13.7
2003-04-24 05:25:57 51°12.31 2°48.54 243.3 12.8 241 13.7
2003-04-24 05:26:01 51°12.3 2°48.52 243.3 12.8 240 13.7
2003-04-24 05:26:07 51°12.29 2°48.49 242.9 12.8 240 13.7
2003-04-24 05:26:11 51°12.29 2°48.47 242.9 12.8 240 13.7
2003-04-24 05:26:17 51°12.27 2°48.44 242.4 12.8 240 13.7
2003-04-24 05:26:21 51°12.27 2°48.43 243.1 12.8 240 13.7
2003-04-24 05:26:27 51°12.26 2°48.4 243.1 12.8 240 13.7
2003-04-24 05:26:33 51°12.25 2°48.37 243.4 12.8 241 13.7
2003-04-24 05:26:37 51°12.24 2°48.35 243.7 12.8 241 13.7
2003-04-24 05:26:41 51°12.23 2°48.33 243.4 12.8 241 13.7
2003-04-24 05:26:47 51°12.22 2°48.3 243.2 12.8 240 13.7
2003-04-24 05:26:51 51°12.22 2°48.28 242.4 12.8 240 13.8
2003-04-24 05:26:57 51°12.2 2°48.25 242.8 12.8 240 13.7
2003-04-24 05:27:01 51°12.2 2°48.23 242.8 12.8 240 13.7
2003-04-24 05:27:07 51°12.19 2°48.2 242.7 12.8 240 13.7
2003-04-24 05:27:11 51°12.18 2°48.18 243.3 12.8 241 13.7
2003-04-24 05:27:17 51°12.17 2°48.15 243.3 12.8 241 13.7
2003-04-24 05:27:21 51°12.16 2°48.13 243.8 12.8 241 13.7
2003-04-24 05:27:27 51°12.15 2°48.1 243.5 12.9 241 13.6
2003-04-24 05:27:31 51°12.15 2°48.08 243.3 12.9 241 13.7
2003-04-24 05:27:37 51°12.14 2°48.05 243.4 12.9 241 13.7
2003-04-24 05:27:41 51°12.13 2°48.03 243.7 12.8 241 13.7
2003-04-24 05:27:47 51°12.12 2°48 243.7 12.8 241 13.7
2003-04-24 05:27:53 51°12.11 2°47.97 243.4 12.8 241 13.7
2003-04-24 05:27:57 51°12.1 2°47.95 243.3 12.8 241 13.7
2003-04-24 05:28:01 51°12.09 2°47.93 242.7 12.7 240 13.7
2003-04-24 05:28:07 51°12.08 2°47.9 242.6 12.7 240 13.7
2003-04-24 05:28:11 51°12.08 2°47.88 242.7 12.7 239 13.7
2003-04-24 05:28:17 51°12.06 2°47.86 242.4 12.7 240 13.7
2003-04-24 05:28:23 51°12.05 2°47.83 242.4 12.8 240 13.7
2003-04-24 05:28:27 51°12.05 2°47.81 243.1 12.8 240 13.7
2003-04-24 05:28:31 51°12.04 2°47.79 243.7 12.8 241 13.6
2003-04-24 05:28:37 51°12.03 2°47.76 243.5 12.8 241 13.7
2003-04-24 05:28:41 51°12.02 2°47.74 243.4 12.8 241 13.7
2003-04-24 05:28:47 51°12.01 2°47.71 244.1 12.8 241 13.7
2003-04-24 05:28:51 51°12.01 2°47.69 243.4 12.8 241 13.6
2003-04-24 05:28:57 51°11.99 2°47.66 243.3 12.8 240 13.7
2003-04-24 05:29:01 51°11.99 2°47.64 243.3 12.8 241 13.7
2003-04-24 05:29:07 51°11.98 2°47.61 243.2 12.8 240 13.6
2003-04-24 05:29:11 51°11.97 2°47.59 243.1 12.8 241 13.6
2003-04-24 05:29:17 51°11.96 2°47.56 243.6 12.8 241 13.6
2003-04-24 05:29:21 51°11.95 2°47.54 243.9 12.8 241 13.7
2003-04-24 05:29:27 51°11.94 2°47.51 244 12.7 241 13.6
2003-04-24 05:29:33 51°11.93 2°47.48 244.1 12.7 241 13.6
2003-04-24 05:29:37 51°11.93 2°47.46 243.4 12.7 241 13.6
2003-04-24 05:29:41 51°11.92 2°47.44 243.7 12.8 241 13.6
2003-04-24 05:29:47 51°11.91 2°47.41 243.1 12.8 241 13.6
2003-04-24 05:29:51 51°11.9 2°47.39 243.7 12.8 242 13.6
2003-04-24 05:29:57 51°11.89 2°47.36 244.4 12.8 242 13.6
2003-04-24 05:30:01 51°11.89 2°47.34 244.5 12.8 242 13.6
2003-04-24 05:30:07 51°11.88 2°47.31 244.5 12.8 242 13.6
2003-04-24 05:30:11 51°11.87 2°47.29 244.2 12.8 241 13.5
2003-04-24 05:30:17 51°11.86 2°47.26 243.7 12.8 241 13.5
2003-04-24 05:30:21 51°11.85 2°47.24 243.9 12.7 241 13.5
2003-04-24 05:30:27 51°11.84 2°47.21 243.6 12.7 241 13.5
2003-04-24 05:30:31 51°11.83 2°47.2 243.7 12.7 240 13.4
2003-04-24 05:30:37 51°11.82 2°47.17 243 12.8 241 13.4
2003-04-24 05:30:43 51°11.81 2°47.14 243.7 12.7 241 13.3
2003-04-24 05:30:47 51°11.81 2°47.12 243.7 12.7 241 13.3
2003-04-24 05:30:51 51°11.8 2°47.1 243.2 12.7 240 13.3
2003-04-24 05:30:57 51°11.79 2°47.07 242.7 12.8 240 13.3
2003-04-24 05:31:01 51°11.78 2°47.05 242.8 12.8 241 13.4
2003-04-24 05:31:07 51°11.77 2°47.02 244.1 12.7 242 13.3
2003-04-24 05:31:13 51°11.76 2°46.99 245.1 12.7 243 13.3
2003-04-24 05:31:17 51°11.76 2°46.97 246.7 12.7 244 13.4
2003-04-24 05:31:21 51°11.75 2°46.95 247.5 12.7 245 13.3
2003-04-24 05:31:27 51°11.74 2°46.92 247.8 12.7 245 13.3
2003-04-24 05:31:31 51°11.74 2°46.9 247.8 12.7 245 13.2
2003-04-24 05:31:37 51°11.73 2°46.87 247.3 12.7 245 13.3
2003-04-24 05:31:41 51°11.72 2°46.85 246.9 12.7 245 13.3
2003-04-24 05:31:47 51°11.71 2°46.81 247.4 12.7 245 13.3
2003-04-24 05:31:51 51°11.71 2°46.79 247.5 12.7 245 13.4
2003-04-24 05:31:57 51°11.7 2°46.76 247.7 12.7 245 13.4
2003-04-24 05:32:01 51°11.69 2°46.74 247.7 12.7 245 13.4
2003-04-24 05:32:07 51°11.68 2°46.71 248 12.7 246 13.4
2003-04-24 05:32:11 51°11.68 2°46.69 248.2 12.6 246 13.4
2003-04-24 05:32:17 51°11.67 2°46.66 247.9 12.6 245 13.4
2003-04-24 05:32:23 51°11.66 2°46.63 247.8 12.7 246 13.3
2003-04-24 05:32:27 51°11.65 2°46.61 248 12.7 245 13.4
2003-04-24 05:32:31 51°11.65 2°46.59 247.6 12.7 245 13.4
2003-04-24 05:32:37 51°11.64 2°46.56 247.8 12.7 245 13.5
2003-04-24 05:32:41 51°11.63 2°46.54 247.9 12.7 245 13.5
2003-04-24 05:32:47 51°11.63 2°46.51 247.8 12.7 245 13.5
2003-04-24 05:32:51 51°11.62 2°46.49 247.5 12.7 246 13.5
2003-04-24 05:32:57 51°11.61 2°46.46 248.4 12.7 246 13.6
2003-04-24 05:33:03 51°11.6 2°46.43 248.9 12.7 247 13.5
2003-04-24 05:33:07 51°11.6 2°46.41 249.6 12.7 248 13.6
2003-04-24 05:33:11 51°11.59 2°46.38 250.5 12.8 248 13.6
2003-04-24 05:33:17 51°11.59 2°46.35 250.7 12.8 249 13.7
2003-04-24 05:33:21 51°11.58 2°46.33 251 12.8 249 13.7
2003-04-24 05:33:27 51°11.57 2°46.3 250.9 12.8 249 13.7
2003-04-24 05:33:31 51°11.57 2°46.28 250.6 12.8 248 13.7
2003-04-24 05:33:37 51°11.56 2°46.25 250.6 12.8 248 13.7
2003-04-24 05:33:41 51°11.55 2°46.23 250.5 12.8 247 13.7
2003-04-24 05:33:47 51°11.55 2°46.2 249.3 12.8 247 13.7
2003-04-24 05:33:51 51°11.54 2°46.18 249.6 12.8 248 13.7
2003-04-24 05:33:57 51°11.53 2°46.14 250.3 12.8 248 13.7
2003-04-24 05:34:03 51°11.52 2°46.11 250.3 12.8 248 13.7
2003-04-24 05:34:07 51°11.52 2°46.09 250.4 12.8 248 13.7
2003-04-24 05:34:13 51°11.51 2°46.06 250.7 12.8 248 13.7
2003-04-24 05:34:17 51°11.51 2°46.04 250.7 12.8 248 13.7
2003-04-24 05:34:21 51°11.5 2°46.02 250.9 12.8 249 13.7
2003-04-24 05:34:27 51°11.49 2°45.99 250.7 12.8 248 13.7
2003-04-24 05:34:31 51°11.49 2°45.97 250.4 12.8 248 13.7
2003-04-24 05:34:37 51°11.48 2°45.93 250.3 12.8 248 13.6
2003-04-24 05:34:43 51°11.47 2°45.9 249.9 12.8 247 13.6
2003-04-24 05:34:47 51°11.47 2°45.88 249.7 12.8 248 13.6
2003-04-24 05:34:51 51°11.46 2°45.86 250.4 12.8 248 13.7
2003-04-24 05:34:57 51°11.45 2°45.83 250.3 12.8 248 13.6
2003-04-24 05:35:01 51°11.45 2°45.81 250.7 12.9 248 13.7
2003-04-24 05:35:07 51°11.44 2°45.78 250.5 12.9 249 13.6
2003-04-24 05:35:11 51°11.43 2°45.76 251 12.9 249 13.6
2003-04-24 05:35:17 51°11.43 2°45.72 251 12.8 248 13.7
2003-04-24 05:35:23 51°11.42 2°45.69 250.3 12.8 248 13.7
2003-04-24 05:35:27 51°11.41 2°45.67 249.8 12.9 247 13.7
2003-04-24 05:35:31 51°11.41 2°45.65 249.6 12.9 247 13.7
2003-04-24 05:35:37 51°11.4 2°45.62 250.2 12.9 248 13.7
2003-04-24 05:35:43 51°11.39 2°45.59 251.6 12.8 250 13.8
2003-04-24 05:35:47 51°11.39 2°45.57 252.6 12.8 251 13.7
2003-04-24 05:35:53 51°11.38 2°45.53 253.3 12.8 251 13.8
2003-04-24 05:35:57 51°11.38 2°45.51 253.9 12.8 252 13.8
2003-04-24 05:36:01 51°11.37 2°45.49 254.2 12.8 252 13.8
2003-04-24 05:36:07 51°11.37 2°45.46 253.8 12.8 251 13.8
2003-04-24 05:36:11 51°11.36 2°45.44 252.9 12.8 251 13.8
2003-04-24 05:36:17 51°11.35 2°45.4 253.2 12.8 251 13.8
2003-04-24 05:36:21 51°11.35 2°45.38 253.9 12.9 252 13.7
2003-04-24 05:36:27 51°11.34 2°45.35 254.8 12.9 253 13.8
2003-04-24 05:36:33 51°11.34 2°45.32 255.8 12.9 254 13.8
2003-04-24 05:36:37 51°11.34 2°45.29 256 12.9 255 13.7
2003-04-24 05:36:41 51°11.33 2°45.27 257.3 12.9 256 13.8
2003-04-24 05:36:47 51°11.33 2°45.24 258.5 12.9 257 13.9
2003-04-24 05:36:51 51°11.32 2°45.22 260 12.8 258 13.9
2003-04-24 05:36:57 51°11.32 2°45.18 260.1 12.8 259 13.9
2003-04-24 05:37:03 51°11.32 2°45.15 260.4 12.8 259 13.9
2003-04-24 05:37:07 51°11.31 2°45.13 261.2 12.8 259 13.9
2003-04-24 05:37:11 51°11.31 2°45.11 260.8 12.9 259 13.9
2003-04-24 05:37:17 51°11.31 2°45.07 261.1 12.9 260 14
2003-04-24 05:37:21 51°11.3 2°45.05 261.1 12.9 259 14.1
2003-04-24 05:37:27 51°11.3 2°45.02 261.3 12.9 259 14.1
2003-04-24 05:37:31 51°11.3 2°44.99 261.2 12.9 260 14.1
2003-04-24 05:37:37 51°11.29 2°44.96 261.3 12.8 259 14.1
2003-04-24 05:37:43 51°11.29 2°44.93 260.8 12.8 259 14.2
2003-04-24 05:37:47 51°11.29 2°44.91 260.8 12.8 259 14.2
2003-04-24 05:37:51 51°11.28 2°44.88 260.6 12.8 259 14.2
2003-04-24 05:37:57 51°11.28 2°44.85 260.6 12.8 259 14.2
2003-04-24 05:38:01 51°11.28 2°44.83 260.6 12.8 259 14.2
2003-04-24 05:38:07 51°11.27 2°44.79 260.5 12.9 259 14.3
2003-04-24 05:38:13 51°11.27 2°44.76 261.2 12.9 259 14.3
2003-04-24 05:38:17 51°11.27 2°44.74 261.4 12.9 259 14.3
2003-04-24 05:38:21 51°11.26 2°44.72 261.8 12.9 260 14.4
2003-04-24 05:38:27 51°11.26 2°44.68 262.2 12.9 260 14.4
2003-04-24 05:38:31 51°11.26 2°44.66 262.7 12.9 261 14.4
2003-04-24 05:38:37 51°11.26 2°44.63 262.9 12.9 261 14.4
2003-04-24 05:38:42 51°11.25 2°44.6 263.2 12.9 261 14.4
2003-04-24 05:38:46 51°11.25 2°44.57 262.9 12.9 261 14.5
2003-04-24 05:38:53 51°11.25 2°44.54 262 12.9 260 14.5
2003-04-24 05:38:57 51°11.24 2°44.51 262 12.9 260 14.4
2003-04-24 05:39:01 51°11.24 2°44.49 261.7 12.9 260 14.5
2003-04-24 05:39:06 51°11.24 2°44.46 261.4 12.9 260 14.5
2003-04-24 05:39:10 51°11.23 2°44.44 262 12.8 260 14.7
2003-04-24 05:39:17 51°11.23 2°44.4 262.4 12.8 260 14.6
2003-04-24 05:39:22 51°11.23 2°44.37 262.7 12.8 261 14.6
2003-04-24 05:39:26 51°11.23 2°44.35 262.8 12.8 261 14.6
2003-04-24 05:39:31 51°11.22 2°44.32 262.8 12.8 261 14.6
2003-04-24 05:39:37 51°11.22 2°44.29 262.6 12.8 261 14.6
2003-04-24 05:39:41 51°11.22 2°44.27 262.7 12.8 260 14.7
2003-04-24 05:39:46 51°11.21 2°44.24 262.6 12.8 261 14.7
2003-04-24 05:39:53 51°11.21 2°44.2 262.7 12.8 260 14.7
2003-04-24 05:39:57 51°11.21 2°44.18 262.3 12.8 260 14.8
2003-04-24 05:40:02 51°11.2 2°44.15 261.9 12.9 260 14.8
2003-04-24 05:40:06 51°11.2 2°44.13 262.2 12.9 261 14.8
2003-04-24 05:40:10 51°11.2 2°44.1 263.1 12.9 261 14.8
2003-04-24 05:40:17 51°11.2 2°44.07 263.5 12.9 262 14.8
2003-04-24 05:40:22 51°11.19 2°44.04 264.1 12.8 262 14.8
2003-04-24 05:40:26 51°11.19 2°44.01 263.7 12.8 262 14.8
2003-04-24 05:40:33 51°11.19 2°43.98 263.7 12.8 262 14.8
2003-04-24 05:40:37 51°11.19 2°43.95 263.9 12.8 262 14.9
2003-04-24 05:40:41 51°11.18 2°43.93 263.6 12.8 261 14.8
2003-04-24 05:40:46 51°11.18 2°43.9 262.6 12.8 261 14.9
2003-04-24 05:40:50 51°11.18 2°43.88 263.1 12.8 262 14.9
2003-04-24 05:40:57 51°11.18 2°43.84 263.9 12.8 262 14.8
2003-04-24 05:41:01 51°11.17 2°43.82 263.6 12.8 262 14.9
2003-04-24 05:41:06 51°11.17 2°43.79 263.4 12.8 262 14.9
2003-04-24 05:41:13 51°11.17 2°43.75 263.6 12.8 262 14.9
2003-04-24 05:41:17 51°11.17 2°43.73 263.4 12.8 262 14.9
2003-04-24 05:41:21 51°11.16 2°43.71 263.1 12.8 261 15
2003-04-24 05:41:26 51°11.16 2°43.68 263.4 12.8 262 14.9
2003-04-24 05:41:33 51°11.16 2°43.64 263.4 12.8 262 14.9
2003-04-24 05:41:37 51°11.16 2°43.62 264 12.8 262 14.9
2003-04-24 05:41:41 51°11.15 2°43.6 263.7 12.8 262 15
2003-04-24 05:41:46 51°11.15 2°43.57 263.3 12.7 262 14.9
2003-04-24 05:41:50 51°11.15 2°43.55 263.4 12.7 261 15
2003-04-24 05:41:57 51°11.14 2°43.51 263.3 12.7 261 15
2003-04-24 05:42:01 51°11.14 2°43.48 262.9 12.7 261 15
2003-04-24 05:42:06 51°11.14 2°43.46 263.3 12.7 261 15
2003-04-24 05:42:13 51°11.14 2°43.42 262.9 12.7 261 15
2003-04-24 05:42:17 51°11.13 2°43.4 262.7 12.7 261 15
2003-04-24 05:42:21 51°11.13 2°43.37 263.2 12.7 261 15
2003-04-24 05:42:26 51°11.13 2°43.35 263.4 12.8 261 15.1
2003-04-24 05:42:30 51°11.13 2°43.32 263.5 12.8 262 15.1
2003-04-24 05:42:37 51°11.12 2°43.28 264.2 12.8 262 15
2003-04-24 05:42:41 51°11.12 2°43.26 265.1 12.8 263 15.1
2003-04-24 05:42:46 51°11.12 2°43.23 265.2 12.8 263 15.1
2003-04-24 05:42:50 51°11.12 2°43.21 266 12.8 264 15.1
2003-04-24 05:42:57 51°11.12 2°43.17 266.1 12.8 264 15.1
2003-04-24 05:43:01 51°11.11 2°43.15 266.1 12.8 264 15.1
2003-04-24 05:43:06 51°11.11 2°43.12 265.8 12.9 264 15.1
2003-04-24 05:43:13 51°11.11 2°43.08 265.7 12.8 264 15.1
2003-04-24 05:43:17 51°11.11 2°43.06 265.8 12.8 264 15.2
2003-04-24 05:43:22 51°11.11 2°43.03 265.9 12.8 264 15.1
2003-04-24 05:43:26 51°11.1 2°43.01 266 12.8 264 15.1
2003-04-24 05:43:30 51°11.1 2°42.99 265.6 12.9 264 15.1
2003-04-24 05:43:36 51°11.1 2°42.95 266.1 12.9 264 15.2
2003-04-24 05:43:41 51°11.1 2°42.92 265.6 12.9 264 15.1
2003-04-24 05:43:46 51°11.1 2°42.9 265.7 12.9 264 15.1
2003-04-24 05:43:50 51°11.1 2°42.87 265.8 12.9 264 15.2
2003-04-24 05:43:57 51°11.09 2°42.83 265.8 12.9 264 15.1
2003-04-24 05:44:01 51°11.09 2°42.81 265.4 12.9 264 15.1
2003-04-24 05:44:06 51°11.09 2°42.78 265.7 12.9 264 15.2
2003-04-24 05:44:10 51°11.09 2°42.76 266.3 13 264 15.2
2003-04-24 05:44:17 51°11.09 2°42.72 266.3 13 264 15.2
2003-04-24 05:44:21 51°11.08 2°42.7 267 13 265 15.2
2003-04-24 05:44:26 51°11.08 2°42.67 266.9 13 265 15.1
2003-04-24 05:44:33 51°11.08 2°42.63 267.1 13.1 265 15.1
2003-04-24 05:44:37 51°11.08 2°42.6 267 13.1 265 15.1
2003-04-24 05:44:41 51°11.08 2°42.58 266.9 13.1 265 15.1
2003-04-24 05:44:46 51°11.08 2°42.55 268 12.9 265 15
2003-04-24 05:44:50 51°11.08 2°42.53 267.3 12.2 266 15.1
2003-04-24 05:44:57 51°11.07 2°42.5 267.7 11.6 266 15
2003-04-24 05:45:02 51°11.07 2°42.48 268.5 10.6 268 15.1
2003-04-24 05:45:06 51°11.07 2°42.46 269.3 10 268 15.2
2003-04-24 05:45:10 51°11.07 2°42.44 270.3 9.3 270 15.2
2003-04-24 05:45:17 51°11.07 2°42.42 271.4 8.9 271 15.2
2003-04-24 05:45:21 51°11.08 2°42.4 271.9 8.3 272 15.2
2003-04-24 05:45:26 51°11.08 2°42.39 272.8 8 273 15.2
2003-04-24 05:45:30 51°11.08 2°42.37 273.6 7.6 274 15.2
2003-04-24 05:45:37 51°11.08 2°42.35 275.7 7.4 276 15.2
2003-04-24 05:45:41 51°11.08 2°42.34 277 7 278 15.2
2003-04-24 05:45:46 51°11.08 2°42.33 277.9 6.8 279 15.1
2003-04-24 05:45:50 51°11.08 2°42.31 277.8 6.5 278 15.1
2003-04-24 05:45:57 51°11.08 2°42.29 276.9 6.4 278 15.1
2003-04-24 05:46:01 51°11.08 2°42.28 275.5 6.1 276 15.1
2003-04-24 05:46:06 51°11.08 2°42.27 274.3 6 276 15.1
2003-04-24 05:46:13 51°11.09 2°42.25 273.7 5.8 275 15.1
2003-04-24 05:46:17 51°11.09 2°42.24 272.9 5.6 274 15.1
2003-04-24 05:46:21 51°11.09 2°42.24 272.1 5.3 273 15.1
2003-04-24 05:46:26 51°11.09 2°42.22 270.7 5.1 272 15
2003-04-24 05:46:30 51°11.09 2°42.22 269.3 4.9 271 15
2003-04-24 05:46:36 51°11.09 2°42.2 268 4.7 270 15
2003-04-24 05:46:42 51°11.09 2°42.19 266.8 4.5 268 15
2003-04-24 05:46:46 51°11.09 2°42.19 266 4.4 268 15.1
2003-04-24 05:46:52 51°11.09 2°42.17 265 4.2 266 15
2003-04-24 05:46:56 51°11.09 2°42.17 264.2 4.1 266 15
2003-04-24 05:47:00 51°11.08 2°42.16 263.6 4 265 15
2003-04-24 05:47:06 51°11.08 2°42.15 262.9 3.9 265 15
2003-04-24 05:47:10 51°11.08 2°42.14 262.3 3.8 264 15
2003-04-24 05:47:16 51°11.08 2°42.13 261.9 3.6 264 15
2003-04-24 05:47:20 51°11.08 2°42.13 261.4 3.5 263 15
2003-04-24 05:47:26 51°11.08 2°42.12 261 3.3 263 15
2003-04-24 05:47:30 51°11.08 2°42.11 260.3 3.1 262 14.9
2003-04-24 05:47:37 51°11.08 2°42.11 259.2 3 261 15
2003-04-24 05:47:41 51°11.08 2°42.1 258.2 2.9 260 15
2003-04-24 05:47:47 51°11.08 2°42.09 257.4 2.8 259 15
2003-04-24 05:47:51 51°11.08 2°42.09 256.3 2.6 257 14.9
2003-04-24 05:47:57 51°11.08 2°42.08 255 2.5 256 14.9
2003-04-24 05:48:01 51°11.08 2°42.08 253.4 2.4 254 14.9
2003-04-24 05:48:07 51°11.07 2°42.07 251.9 2.3 252 14.9
2003-04-24 05:48:11 51°11.07 2°42.07 250.4 2.2 250 14.9
2003-04-24 05:48:17 51°11.07 2°42.07 248.9 2.1 249 15
2003-04-24 05:48:21 51°11.07 2°42.06 247.5 1.9 248 15
2003-04-24 05:48:27 51°11.07 2°42.06 246 1.8 245 15
2003-04-24 05:48:31 51°11.07 2°42.06 244.8 1.6 243 15
2003-04-24 05:48:37 51°11.07 2°42.05 243.8 1.6 241 15
2003-04-24 05:48:41 51°11.07 2°42.05 242.9 1.6 240 15
2003-04-24 05:48:47 51°11.07 2°42.05 241.6 1.5 236 15
2003-04-24 05:48:51 51°11.07 2°42.05 240.4 1.4 233 15
2003-04-24 05:48:57 51°11.06 2°42.04 238.9 1.4 230 15
2003-04-24 05:49:01 51°11.06 2°42.04 237.6 1.3 228 15
2003-04-24 05:49:07 51°11.06 2°42.04 235.9 1 222 15
2003-04-24 05:49:11 51°11.06 2°42.04 234 0.6 211 15
2003-04-24 05:49:17 51°11.06 2°42.04 231.6 0.4 191 15
2003-04-24 05:49:21 51°11.06 2°42.04 229.3 0.2 141 15
2003-04-24 05:49:27 51°11.06 2°42.04 227.5 0.4 84 15
2003-04-24 05:49:31 51°11.06 2°42.04 226.5 0.6 67 15
2003-04-24 05:49:37 51°11.06 2°42.05 226.1 0.8 62 15
2003-04-24 05:49:41 51°11.06 2°42.05 226.1 1.1 56 15.1
2003-04-24 05:49:47 51°11.07 2°42.05 226.2 1.3 55 15
2003-04-24 05:49:51 51°11.07 2°42.05 226.4 1.5 53 15
2003-04-24 05:49:57 51°11.07 2°42.06 226.7 1.8 52 15
2003-04-24 05:50:01 51°11.07 2°42.06 227.1 1.9 51 15
2003-04-24 05:50:07 51°11.07 2°42.07 227.8 2.2 51 -999
2003-04-24 05:50:11 51°11.07 2°42.07 228.7 2.2 51 -999
2003-04-24 05:50:17 51°11.08 2°42.07 229.7 2.3 52 -999
2003-04-24 05:50:21 51°11.08 2°42.08 230.4 2.3 53 -999
2003-04-24 05:50:27 51°11.08 2°42.08 230.9 2.3 54 -999
2003-04-24 05:50:31 51°11.08 2°42.09 231.3 2.3 54 -999
2003-04-24 05:50:37 51°11.08 2°42.09 231.5 2.2 55 -999
2003-04-24 05:50:41 51°11.09 2°42.09 231.6 2.2 55 -999
2003-04-24 05:50:47 51°11.09 2°42.1 231.5 2.1 56 15
2003-04-24 05:50:51 51°11.09 2°42.1 231.5 2.1 55 15
2003-04-24 05:50:57 51°11.09 2°42.11 231.4 2 56 15.1
2003-04-24 05:51:01 51°11.09 2°42.11 231 2 56 15
2003-04-24 05:51:07 51°11.09 2°42.11 230.8 2 56 15
2003-04-24 05:51:11 51°11.09 2°42.12 230.8 2 56 14.9
2003-04-24 05:51:17 51°11.1 2°42.12 230.4 1.9 57 14.9
2003-04-24 05:51:21 51°11.1 2°42.12 230 1.9 56 14.9
2003-04-24 05:51:27 51°11.1 2°42.13 229.9 1.8 57 14.9
2003-04-24 05:51:31 51°11.1 2°42.13 229.5 1.8 56 14.9
2003-04-24 05:51:37 51°11.1 2°42.13 229.3 1.8 57 15
2003-04-24 05:51:41 51°11.1 2°42.14 229 1.7 57 15
2003-04-24 05:51:47 51°11.1 2°42.14 228.7 1.7 57 15
2003-04-24 05:51:51 51°11.11 2°42.14 228.7 1.7 57 15
2003-04-24 05:51:57 51°11.11 2°42.15 228.5 1.7 57 15
2003-04-24 05:52:01 51°11.11 2°42.15 228.3 1.6 56 15
2003-04-24 05:52:05 51°11.11 2°42.15 228 1.6 56 15
2003-04-24 05:52:11 51°11.11 2°42.15 228 1.6 56 15
2003-04-24 05:52:15 51°11.11 2°42.16 227.9 1.6 58 15
2003-04-24 05:52:21 51°11.11 2°42.16 227.8 1.5 58 14.9
2003-04-24 05:52:25 51°11.11 2°42.16 227.6 1.5 58 14.9
2003-04-24 05:52:31 51°11.11 2°42.17 227.4 1.5 58 14.9
2003-04-24 05:52:36 51°11.12 2°42.17 227.1 1.5 59 14.9
2003-04-24 05:52:42 51°11.12 2°42.17 226.8 1.5 58 14.9
2003-04-24 05:52:46 51°11.12 2°42.17 226.6 1.4 58 15
2003-04-24 05:52:52 51°11.12 2°42.18 226.4 1.4 58 14.9
2003-04-24 05:52:56 51°11.12 2°42.18 226.2 1.3 59 14.9
2003-04-24 05:53:02 51°11.12 2°42.18 226.1 1.3 59 14.9
2003-04-24 05:53:06 51°11.12 2°42.18 226 1.2 60 14.9
2003-04-24 05:53:12 51°11.12 2°42.19 226 1.1 61 14.9
2003-04-24 05:53:16 51°11.12 2°42.19 226.1 1 62 14.9